Time;durP1;ratioP1;P1;durP2;ratioP2;P2;SDS_P1;SDS_P2;PMS_P1;PMS_P2;Temp;Humidity;BMP_temperature;BMP_pressure;BME280_temperature;BME280_humidity;BME280_pressure;Samples;Min_cycle;Max_cycle;Signal;HPM_P1;HPM_P2
2023/05/01 00:01:29;;;;;;;0.50;0.40;;;;;;;23.03;38.26;101684.66;5010743;28;97407;-76
2023/05/01 00:03:55;;;;;;;0.40;0.30;;;;;;;23.02;38.53;101680.22;5015799;27;97583;-76
2023/05/01 00:06:22;;;;;;;0.63;0.35;;;;;;;23.03;38.26;101675.59;5010871;28;97681;-76
2023/05/01 00:08:49;;;;;;;0.40;0.30;;;;;;;23.03;38.17;101670.09;5024303;28;96523;-76
2023/05/01 00:11:15;;;;;;;0.50;0.30;;;;;;;23.03;38.58;101665.47;5021304;28;96690;-77
2023/05/01 00:13:42;;;;;;;0.40;0.20;;;;;;;23.03;38.48;101665.47;5014625;27;97655;-76
2023/05/01 00:16:10;;;;;;;0.40;0.25;;;;;;;23.02;38.16;101663.78;5011086;28;97442;-76
2023/05/01 00:18:37;;;;;;;0.40;0.20;;;;;;;23.02;38.58;101657.44;5010514;28;97230;-76
2023/05/01 00:21:04;;;;;;;0.32;0.30;;;;;;;23.02;38.60;101654.69;4992783;28;98305;-76
2023/05/01 00:23:31;;;;;;;0.30;0.30;;;;;;;23.02;38.61;101647.31;5010905;28;98089;-76
2023/05/01 00:25:57;;;;;;;0.35;0.30;;;;;;;23.02;38.38;101646.47;5010710;28;97477;-76
2023/05/01 00:28:24;;;;;;;0.52;0.40;;;;;;;23.02;38.42;101646.47;5023342;28;97601;-76
2023/05/01 00:30:51;;;;;;;0.40;0.35;;;;;;;23.02;38.34;101641.84;5011911;28;97059;-75
2023/05/01 00:33:17;;;;;;;0.32;0.30;;;;;;;23.02;38.53;101643.72;5024569;28;96800;-76
2023/05/01 00:35:45;;;;;;;0.50;0.30;;;;;;;23.02;38.58;101636.38;5009617;28;96593;-76
2023/05/01 00:38:11;;;;;;;0.43;0.20;;;;;;;23.03;38.53;101639.97;5009285;28;96723;-76
2023/05/01 00:40:42;;;;;;;0.40;0.28;;;;;;;23.03;38.57;101631.75;5010964;28;96869;-76
2023/05/01 00:43:10;;;;;;;0.35;0.30;;;;;;;23.02;38.33;101632.78;5008439;28;98787;-76
2023/05/01 00:45:39;;;;;;;0.40;0.30;;;;;;;23.02;38.24;101636.38;5008599;28;97861;-76
2023/05/01 00:48:06;;;;;;;0.30;0.30;;;;;;;23.02;38.75;101624.56;5022772;28;96704;-76
2023/05/01 00:50:33;;;;;;;0.30;0.30;;;;;;;23.02;38.43;101613.59;5010811;28;96876;-76
2023/05/01 00:52:59;;;;;;;0.35;0.30;;;;;;;23.01;38.63;101618.22;5009719;28;96691;-76
2023/05/01 00:55:26;;;;;;;0.50;0.32;;;;;;;23.01;38.59;101614.63;5019101;28;100386;-76
2023/05/01 00:57:54;;;;;;;0.25;0.20;;;;;;;23.02;38.70;101616.34;5010303;28;96963;-76
2023/05/01 01:00:23;;;;;;;0.50;0.28;;;;;;;23.02;38.46;101616.34;5010836;28;97369;-76
2023/05/01 01:02:50;;;;;;;0.35;0.20;;;;;;;23.01;38.37;101606.41;4991564;28;99775;-76
2023/05/01 01:05:20;;;;;;;0.30;0.20;;;;;;;23.02;38.49;101610.84;5010470;28;97890;-76
2023/05/01 01:07:58;;;;;;;0.40;0.22;;;;;;;23.02;38.64;101602.63;5010030;28;96732;-76
2023/05/01 01:11:20;;;;;;;0.30;0.30;;;;;;;23.03;38.83;101593.38;5011023;28;96691;-76
2023/05/01 01:14:20;;;;;;;0.20;0.20;;;;;;;23.00;38.45;101589.13;4985134;28;98850;-76
2023/05/01 01:16:55;;;;;;;0.50;0.30;;;;;;;22.98;38.34;101588.44;5009809;28;99946;-75
2023/05/01 01:19:56;;;;;;;0.50;0.30;;;;;;;22.99;38.56;101581.06;5011702;28;97239;-75
2023/05/01 01:22:26;;;;;;;0.43;0.35;;;;;;;22.98;38.40;101588.44;5010972;28;96848;-75
2023/05/01 01:25:11;;;;;;;0.40;0.30;;;;;;;22.98;38.44;101582.94;5021639;28;99265;-75
2023/05/01 01:28:10;;;;;;;0.40;0.30;;;;;;;22.98;38.40;101579.34;5008996;28;99448;-75
2023/05/01 01:30:40;;;;;;;0.80;0.20;;;;;;;22.97;38.47;101577.66;5010496;28;97081;-75
2023/05/01 01:33:22;;;;;;;0.30;0.20;;;;;;;22.97;38.66;101573.03;5009973;28;96599;-75
2023/05/01 01:36:06;;;;;;;0.57;0.30;;;;;;;22.98;38.48;101566.50;5000781;28;99616;-75
2023/05/01 01:38:41;;;;;;;0.60;0.43;;;;;;;22.97;38.67;101567.53;5019402;28;96823;-76
2023/05/01 01:41:12;;;;;;;0.60;0.38;;;;;;;22.98;38.51;101557.44;5018991;28;96874;-76
2023/05/01 01:44:01;;;;;;;0.25;0.20;;;;;;;22.97;38.69;101562.06;5008742;28;96755;-76
2023/05/01 01:46:33;;;;;;;0.17;0.15;;;;;;;22.97;38.63;101555.72;5022097;28;100726;-76
2023/05/01 01:49:02;;;;;;;0.40;0.25;;;;;;;22.97;38.47;101551.09;5010736;28;97166;-76
2023/05/01 01:51:30;;;;;;;0.43;0.35;;;;;;;22.98;38.31;101546.47;5009153;28;96844;-76
2023/05/01 01:53:59;;;;;;;0.50;0.30;;;;;;;22.98;38.67;101546.47;5021331;28;96682;-75
2023/05/01 01:56:28;;;;;;;0.32;0.28;;;;;;;22.98;38.42;101550.06;5009417;28;98051;-76
2023/05/01 01:58:55;;;;;;;0.32;0.20;;;;;;;22.98;38.59;101541.84;5007561;28;100139;-76
2023/05/01 02:01:23;;;;;;;0.60;0.30;;;;;;;22.99;38.58;101539.97;5008794;28;97028;-76
2023/05/01 02:03:52;;;;;;;0.20;0.10;;;;;;;22.99;38.29;101539.97;5009306;28;96775;-76
2023/05/01 02:06:20;;;;;;;0.60;0.30;;;;;;;22.98;38.55;101535.53;5011743;28;101279;-76
2023/05/01 02:08:50;;;;;;;0.38;0.30;;;;;;;22.98;38.60;101527.31;5026080;28;96632;-76
2023/05/01 02:11:20;;;;;;;0.30;0.30;;;;;;;22.98;38.51;101528.16;4995056;28;98290;-76
2023/05/01 02:13:49;;;;;;;0.25;0.20;;;;;;;22.99;38.18;101526.28;5011599;28;97058;-75
2023/05/01 02:16:18;;;;;;;0.38;0.20;;;;;;;22.98;38.49;101527.31;5012489;28;96704;-76
2023/05/01 02:18:45;;;;;;;0.40;0.28;;;;;;;22.96;38.37;101519.25;5012920;28;96683;-75
2023/05/01 02:21:13;;;;;;;0.52;0.20;;;;;;;22.97;38.28;101517.38;5025102;28;96696;-75
2023/05/01 02:23:40;;;;;;;0.40;0.30;;;;;;;22.98;38.66;101519.09;5012081;28;96967;-75
2023/05/01 02:26:15;;;;;;;0.47;0.30;;;;;;;22.97;38.71;101504.53;5011668;28;96891;-75
2023/05/01 02:28:42;;;;;;;;;;;;;;;22.93;38.51;101516.88;4998834;28;100648;-75
2023/05/01 02:31:09;;;;;;;0.43;0.30;;;;;;;22.92;38.67;101512.41;5026295;28;97139;-75
2023/05/01 02:33:36;;;;;;;0.30;0.30;;;;;;;22.93;38.33;101511.38;5021869;28;96667;-75
2023/05/01 02:36:04;;;;;;;0.32;0.30;;;;;;;22.95;38.42;101498.38;5009811;28;99003;-75
2023/05/01 02:38:31;;;;;;;0.20;0.20;;;;;;;22.95;38.44;101501.13;5006073;28;97564;-75
2023/05/01 02:41:01;;;;;;;0.28;0.20;;;;;;;22.95;38.63;101497.53;5011159;28;97037;-74
2023/05/01 02:43:29;;;;;;;0.40;0.30;;;;;;;22.95;38.76;101501.13;5012685;28;96738;-75
2023/05/01 02:45:57;;;;;;;0.20;0.20;;;;;;;22.95;38.76;101500.25;4993743;28;99725;-75
2023/05/01 02:48:26;;;;;;;0.30;0.20;;;;;;;22.94;38.76;101491.19;5011103;28;96700;-75
2023/05/01 02:50:54;;;;;;;0.40;0.30;;;;;;;22.95;38.54;101498.38;5010038;28;97446;-75
2023/05/01 02:53:21;;;;;;;0.40;0.30;;;;;;;22.95;38.58;101492.03;4994912;28;97108;-75
2023/05/01 02:55:52;;;;;;;0.50;0.38;;;;;;;22.95;38.93;101487.41;5010422;28;96937;-75
2023/05/01 02:58:19;;;;;;;0.70;0.30;;;;;;;22.96;38.37;101488.28;5010935;28;96774;-74
2023/05/01 03:00:48;;;;;;;0.30;0.20;;;;;;;22.95;38.42;101476.47;5010957;28;96936;-74
2023/05/01 03:03:16;;;;;;;0.40;0.22;;;;;;;22.95;38.62;101472.88;5010624;28;96757;-75
2023/05/01 03:05:43;;;;;;;0.40;0.30;;;;;;;22.94;38.45;101469.28;5024939;28;97641;-75
2023/05/01 03:08:10;;;;;;;0.30;0.30;;;;;;;22.94;38.50;101471.16;5012130;28;96893;-74
2023/05/01 03:10:43;;;;;;;0.30;0.20;;;;;;;22.95;38.36;101468.25;5023849;28;96895;-75
2023/05/01 03:13:10;;;;;;;0.40;0.30;;;;;;;22.94;38.80;101469.28;5013300;28;96790;-74
2023/05/01 03:15:37;;;;;;;0.47;0.30;;;;;;;22.94;38.30;101469.28;5009233;28;98505;-75
2023/05/01 03:18:04;;;;;;;0.35;0.25;;;;;;;22.94;38.48;101469.28;5012678;28;97155;-75
2023/05/01 03:20:31;;;;;;;0.28;0.25;;;;;;;22.94;38.69;101463.78;5024258;28;97830;-75
2023/05/01 03:22:58;;;;;;;0.20;0.20;;;;;;;22.94;38.37;101468.41;5023701;27;97181;-74
2023/05/01 03:25:24;;;;;;;0.30;0.22;;;;;;;22.94;38.50;101454.72;5010084;28;96901;-74
2023/05/01 03:27:51;;;;;;;0.30;0.20;;;;;;;22.94;38.56;101457.47;5010129;28;96758;-75
2023/05/01 03:30:21;;;;;;;0.20;0.20;;;;;;;22.93;38.47;101453.88;4997682;28;97211;-75
2023/05/01 03:32:48;;;;;;;0.20;0.20;;;;;;;22.92;38.74;101446.69;5019466;28;97247;-75
2023/05/01 03:35:22;;;;;;;0.30;0.20;;;;;;;22.93;38.50;101444.78;5012589;28;97057;-75
2023/05/01 03:37:49;;;;;;;0.50;0.20;;;;;;;22.92;38.58;101443.09;5010003;28;96861;-75
2023/05/01 03:40:35;;;;;;;0.30;0.20;;;;;;;22.92;38.81;101434.88;5009424;28;96714;-75
2023/05/01 03:43:41;;;;;;;0.80;0.60;;;;;;;22.90;38.69;101440.53;5011399;28;97137;-75
2023/05/01 03:46:17;;;;;;;0.35;0.32;;;;;;;22.90;38.35;101431.44;5009596;28;98846;-75
2023/05/01 03:48:43;;;;;;;0.30;0.20;;;;;;;22.91;38.70;101433.16;5011742;28;97457;-75
2023/05/01 03:51:10;;;;;;;0.40;0.40;;;;;;;22.92;38.56;101429.38;5011174;28;97315;-75
2023/05/01 03:53:37;;;;;;;0.20;0.10;;;;;;;22.91;38.64;101425.78;5010180;28;96952;-75
2023/05/01 03:56:05;;;;;;;0.68;0.30;;;;;;;22.92;38.85;101424.78;5009851;28;96797;-75
2023/05/01 03:58:32;;;;;;;0.40;0.30;;;;;;;22.92;38.50;101424.78;5010461;28;98741;-75
2023/05/01 04:00:59;;;;;;;0.30;0.28;;;;;;;22.92;38.61;101427.50;5011115;28;96817;-75
2023/05/01 04:03:27;;;;;;;0.55;0.40;;;;;;;22.92;38.49;101423.91;5022985;27;96656;-75
2023/05/01 04:05:54;;;;;;;0.40;0.30;;;;;;;22.93;38.68;101421.00;5008101;28;100436;-75
2023/05/01 04:08:21;;;;;;;0.38;0.20;;;;;;;22.92;38.74;101427.50;5009189;28;100080;-75
2023/05/01 04:10:48;;;;;;;0.20;0.20;;;;;;;22.92;38.61;101422.03;5008904;28;96987;-75
2023/05/01 04:13:14;;;;;;;0.32;0.30;;;;;;;22.93;38.70;101417.41;5008892;28;97262;-75
2023/05/01 04:15:47;;;;;;;0.40;0.30;;;;;;;22.93;38.51;101411.94;5025696;28;97439;-74
2023/05/01 04:18:14;;;;;;;0.38;0.20;;;;;;;22.93;38.67;101423.75;5010970;28;96985;-75
2023/05/01 04:20:41;;;;;;;0.20;0.20;;;;;;;22.93;38.85;101421.00;5009758;28;96880;-75
2023/05/01 04:23:08;;;;;;;0.38;0.30;;;;;;;22.93;38.43;101425.63;5011473;28;96678;-75
2023/05/01 04:25:35;;;;;;;1.40;0.35;;;;;;;22.93;38.50;101422.88;5009081;28;98078;-75
2023/05/01 04:28:12;;;;;;;0.30;0.20;;;;;;;22.92;38.67;101419.28;5021301;28;99568;-75
2023/05/01 04:30:38;;;;;;;0.40;0.20;;;;;;;22.92;38.58;101419.28;5008873;28;97611;-75
2023/05/01 04:33:10;;;;;;;0.40;0.30;;;;;;;22.91;38.40;101414.84;4992771;28;96624;-75
2023/05/01 04:35:38;;;;;;;0.30;0.20;;;;;;;22.92;38.76;101407.47;5009219;28;99331;-74
2023/05/01 04:38:05;;;;;;;0.22;0.20;;;;;;;22.91;38.68;101409.38;5009212;28;96790;-75
2023/05/01 04:40:33;;;;;;;0.20;0.20;;;;;;;22.92;38.68;101407.47;5009189;28;96901;-75
2023/05/01 04:42:59;;;;;;;0.45;0.30;;;;;;;22.92;38.68;101411.06;5009583;28;97261;-75
2023/05/01 04:45:26;;;;;;;0.35;0.20;;;;;;;22.91;38.56;101409.38;5009674;28;96807;-75
2023/05/01 04:47:54;;;;;;;0.63;0.40;;;;;;;22.92;38.50;101404.75;5009228;28;97142;-75
2023/05/01 04:50:20;;;;;;;0.40;0.30;;;;;;;22.92;38.80;101408.34;5008990;28;97131;-74
2023/05/01 04:52:47;;;;;;;0.30;0.20;;;;;;;22.92;38.43;101415.69;5009351;28;96893;-75
2023/05/01 04:55:14;;;;;;;0.20;0.20;;;;;;;22.92;38.59;101410.22;5008625;28;100811;-74
2023/05/01 04:58:07;;;;;;;0.20;0.17;;;;;;;22.91;38.46;101414.00;5021261;28;98826;-75
2023/05/01 05:00:34;;;;;;;0.35;0.20;;;;;;;22.91;38.74;101414.00;5009115;28;96840;-75
2023/05/01 05:03:03;;;;;;;0.17;0.17;;;;;;;22.91;38.32;101406.63;5004716;28;96895;-75
2023/05/01 05:05:30;;;;;;;0.30;0.30;;;;;;;22.90;38.57;101404.91;5022111;28;98064;-75
2023/05/01 05:07:57;;;;;;;0.40;0.30;;;;;;;22.91;38.41;101405.78;5017881;28;98278;-75
2023/05/01 05:10:28;;;;;;;0.88;0.22;;;;;;;22.89;38.67;101400.47;5011832;28;97147;-75
2023/05/01 05:13:28;;;;;;;0.43;0.30;;;;;;;22.89;38.57;101405.94;5019993;28;96923;-75
2023/05/01 05:15:59;;;;;;;0.55;0.40;;;;;;;22.89;38.58;101403.22;5008998;28;98014;-75
2023/05/01 05:18:26;;;;;;;0.10;0.10;;;;;;;22.90;38.45;101409.53;4992184;28;97400;-75
2023/05/01 05:20:54;;;;;;;0.20;0.20;;;;;;;22.90;38.60;101409.53;5013657;28;96878;-75
2023/05/01 05:23:21;;;;;;;0.30;0.30;;;;;;;22.89;38.30;101408.69;4995877;28;96869;-75
2023/05/01 05:25:47;;;;;;;0.60;0.40;;;;;;;22.90;38.56;101415.03;5008510;28;97352;-75
2023/05/01 05:28:14;;;;;;;0.45;0.30;;;;;;;22.90;38.28;101412.28;5008510;28;98314;-75
2023/05/01 05:30:41;;;;;;;0.20;0.20;;;;;;;22.90;38.62;101407.66;4992126;28;96777;-75
2023/05/01 05:33:12;;;;;;;0.20;0.20;;;;;;;22.90;38.84;101415.88;5002489;28;97180;-75
2023/05/01 05:35:38;;;;;;;0.40;0.30;;;;;;;22.90;38.40;101418.59;5008341;28;99095;-75
2023/05/01 05:38:05;;;;;;;0.20;0.20;;;;;;;22.91;38.48;101427.69;5012285;28;96797;-75
2023/05/01 05:40:35;;;;;;;0.63;0.30;;;;;;;22.90;38.66;101431.44;5011184;28;96797;-76
2023/05/01 05:43:02;;;;;;;0.15;0.15;;;;;;;22.90;38.40;101429.56;5011938;28;97008;-75
2023/05/01 05:45:32;;;;;;;0.20;0.20;;;;;;;22.90;38.48;101423.22;5019212;27;99913;-76
2023/05/01 05:47:59;;;;;;;0.20;0.20;;;;;;;22.90;38.48;101421.34;5023215;27;99792;-75
2023/05/01 05:50:28;;;;;;;0.70;0.30;;;;;;;22.91;38.52;101425.78;5023996;27;97410;-76
2023/05/01 05:52:56;;;;;;;0.40;0.25;;;;;;;22.90;38.60;101423.22;5023052;27;96677;-76
2023/05/01 05:55:22;;;;;;;0.20;0.13;;;;;;;22.90;38.32;101423.22;5024038;27;99635;-76
2023/05/01 05:57:59;;;;;;;0.28;0.20;;;;;;;22.89;38.51;101416.91;5028289;27;98697;-75
2023/05/01 06:00:26;;;;;;;0.30;0.20;;;;;;;22.89;38.58;101421.53;5027155;27;97132;-76
2023/05/01 06:02:55;;;;;;;0.30;0.30;;;;;;;22.90;38.70;101420.50;5024447;27;97590;-75
2023/05/01 06:05:24;;;;;;;0.28;0.20;;;;;;;22.89;38.46;101411.44;5025210;27;98995;-75
2023/05/01 06:07:51;;;;;;;0.50;0.22;;;;;;;22.89;38.64;101411.44;5021208;27;99202;-76
2023/05/01 06:10:18;;;;;;;0.32;0.20;;;;;;;22.90;38.38;101412.28;5027188;27;97391;-76
2023/05/01 06:12:45;;;;;;;0.30;0.30;;;;;;;22.89;38.35;101411.44;5020255;27;96917;-75
2023/05/01 06:15:27;;;;;;;0.30;0.25;;;;;;;22.88;38.47;101414.34;5010825;28;98131;-76
2023/05/01 06:17:55;;;;;;;0.43;0.30;;;;;;;22.89;38.40;101418.78;4993947;28;97067;-76
2023/05/01 06:20:22;;;;;;;0.20;0.20;;;;;;;22.88;38.64;101415.19;5010853;28;96827;-75
2023/05/01 06:22:49;;;;;;;0.50;0.30;;;;;;;22.88;38.90;101409.72;5023763;28;96859;-76
2023/05/01 06:25:22;;;;;;;0.30;0.30;;;;;;;22.88;38.67;101406.13;5015060;28;100210;-75
2023/05/01 06:27:49;;;;;;;0.28;0.20;;;;;;;22.88;38.45;101403.38;5018005;28;99985;-76
2023/05/01 06:30:20;;;;;;;0.30;0.22;;;;;;;22.88;38.35;101406.13;5022475;28;96745;-76
2023/05/01 06:32:47;;;;;;;0.30;0.20;;;;;;;22.87;38.60;101412.63;5012478;28;97204;-76
2023/05/01 06:35:15;;;;;;;0.30;0.20;;;;;;;22.87;38.36;101407.16;5010513;28;100023;-75
2023/05/01 06:37:41;;;;;;;0.30;0.28;;;;;;;22.87;38.61;101409.88;5010741;28;100408;-75
2023/05/01 06:40:10;;;;;;;0.35;0.30;;;;;;;22.86;38.83;101406.28;5010526;28;97221;-76
2023/05/01 06:42:38;;;;;;;0.20;0.20;;;;;;;22.87;38.61;101407.16;5010877;28;97328;-75
2023/05/01 06:45:06;;;;;;;0.28;0.20;;;;;;;22.86;38.50;101406.28;5011941;28;96768;-76
2023/05/01 06:47:33;;;;;;;0.38;0.30;;;;;;;22.87;38.47;101405.28;5020890;28;98572;-75
2023/05/01 06:50:01;;;;;;;0.30;0.20;;;;;;;22.86;38.82;101402.72;5027665;27;96609;-75
2023/05/01 06:52:32;;;;;;;0.30;0.20;;;;;;;22.87;38.64;101407.16;5012946;28;96803;-76
2023/05/01 06:54:58;;;;;;;0.60;0.30;;;;;;;22.86;38.49;101408.19;5010381;28;96858;-76
2023/05/01 06:57:25;;;;;;;0.32;0.28;;;;;;;22.86;38.54;101406.28;5010668;28;97466;-76
2023/05/01 06:59:52;;;;;;;0.50;0.30;;;;;;;22.86;38.56;101405.44;5010321;28;96697;-76
2023/05/01 07:02:19;;;;;;;0.32;0.20;;;;;;;22.85;38.61;101401.84;5010449;28;97039;-76
2023/05/01 07:04:46;;;;;;;0.30;0.20;;;;;;;22.86;38.73;101402.72;5026104;28;97780;-76
2023/05/01 07:07:13;;;;;;;0.43;0.30;;;;;;;22.85;38.77;101401.84;5011805;28;96738;-76
2023/05/01 07:09:40;;;;;;;0.30;0.20;;;;;;;22.87;38.57;101398.94;5022497;28;96837;-76
2023/05/01 07:12:07;;;;;;;0.40;0.30;;;;;;;22.86;38.39;101398.09;5015471;28;96835;-76
2023/05/01 07:14:34;;;;;;;0.40;0.20;;;;;;;22.86;38.50;101398.09;5012286;28;97099;-75
2023/05/01 07:17:02;;;;;;;0.30;0.20;;;;;;;22.87;38.54;101404.41;5002571;28;98670;-75
2023/05/01 07:19:29;;;;;;;0.60;0.20;;;;;;;22.87;38.64;101396.19;5012199;28;96913;-75
2023/05/01 07:21:56;;;;;;;0.43;0.20;;;;;;;22.87;38.33;101397.06;5010381;28;96803;-76
2023/05/01 07:24:22;;;;;;;0.35;0.30;;;;;;;22.87;38.59;101397.06;5011282;28;98001;-76
2023/05/01 07:26:49;;;;;;;0.45;0.43;;;;;;;22.87;38.77;101396.19;5016476;28;97068;-76
2023/05/01 07:29:15;;;;;;;0.30;0.20;;;;;;;22.87;38.68;101385.25;5012408;28;96715;-76
2023/05/01 07:31:42;;;;;;;0.50;0.20;;;;;;;22.87;38.78;101398.94;5016053;28;96911;-76
2023/05/01 07:34:10;;;;;;;0.30;0.20;;;;;;;22.86;38.60;101398.09;5026906;27;99822;-76
2023/05/01 07:36:37;;;;;;;0.40;0.30;;;;;;;22.87;38.47;101388.84;5019947;28;97418;-75
2023/05/01 07:39:05;;;;;;;0.40;0.35;;;;;;;22.88;38.63;101390.53;5010583;28;96706;-75
2023/05/01 07:41:32;;;;;;;0.38;0.20;;;;;;;22.87;38.63;101385.25;5010251;28;97001;-75
2023/05/01 07:43:58;;;;;;;0.30;0.20;;;;;;;22.88;38.41;101389.69;5011710;28;96793;-75
2023/05/01 07:46:25;;;;;;;0.30;0.30;;;;;;;22.89;38.69;101388.66;5023008;28;98564;-75
2023/05/01 07:48:52;;;;;;;0.20;0.20;;;;;;;22.88;38.63;101393.28;5010106;28;96943;-76
2023/05/01 07:51:19;;;;;;;0.30;0.30;;;;;;;22.88;38.24;101387.81;5016969;28;96664;-75
2023/05/01 07:53:46;;;;;;;0.30;0.30;;;;;;;22.88;38.75;101389.69;5010686;28;100079;-75
2023/05/01 07:56:12;;;;;;;0.50;0.30;;;;;;;22.89;38.39;101391.41;5022366;28;97451;-75
2023/05/01 07:58:41;;;;;;;0.63;0.30;;;;;;;22.88;38.58;101386.94;5011883;28;96595;-76
2023/05/01 08:01:08;;;;;;;0.30;0.30;;;;;;;22.88;38.78;101392.44;5011448;28;96825;-76
2023/05/01 08:03:34;;;;;;;0.35;0.28;;;;;;;22.88;38.73;101398.75;5012309;28;97811;-76
2023/05/01 08:06:01;;;;;;;0.50;0.35;;;;;;;22.89;38.89;101392.25;5026926;27;97305;-75
2023/05/01 08:08:28;;;;;;;0.30;0.22;;;;;;;22.89;38.79;101395.00;5025640;28;97158;-75
2023/05/01 08:10:55;;;;;;;0.32;0.30;;;;;;;22.89;38.36;101392.25;5010413;28;96761;-75
2023/05/01 08:13:21;;;;;;;0.43;0.30;;;;;;;22.90;38.65;101391.22;5011343;28;98256;-75
2023/05/01 08:15:51;;;;;;;0.20;0.13;;;;;;;22.90;38.50;101385.75;5014751;28;96861;-76
2023/05/01 08:18:19;;;;;;;0.22;0.20;;;;;;;22.90;38.79;101393.97;5009878;28;96841;-75
2023/05/01 08:20:47;;;;;;;0.22;0.22;;;;;;;22.90;38.74;101383.00;5011311;28;97249;-75
2023/05/01 08:23:17;;;;;;;0.40;0.30;;;;;;;22.91;38.71;101386.59;5012526;28;97007;-76
2023/05/01 08:25:49;;;;;;;0.57;0.22;;;;;;;22.91;38.54;101381.13;5019922;28;97414;-75
2023/05/01 08:28:20;;;;;;;0.40;0.25;;;;;;;22.90;38.66;101382.16;5011233;28;97119;-76
2023/05/01 08:30:48;;;;;;;0.40;0.30;;;;;;;22.90;38.29;101380.25;5021418;28;97550;-75
2023/05/01 08:33:15;;;;;;;0.20;0.20;;;;;;;22.91;38.38;101381.13;5010913;27;98017;-76
2023/05/01 08:35:42;;;;;;;0.38;0.30;;;;;;;22.91;38.40;101381.97;5009680;28;97503;-76
2023/05/01 08:38:10;;;;;;;0.55;0.30;;;;;;;22.91;38.66;101376.50;5012750;28;97106;-76
2023/05/01 08:40:38;;;;;;;0.30;0.20;;;;;;;22.91;38.54;101376.50;4998468;28;96989;-75
2023/05/01 08:43:04;;;;;;;0.40;0.20;;;;;;;22.92;38.50;101377.34;5028893;28;96778;-76
2023/05/01 08:45:36;;;;;;;0.20;0.20;;;;;;;22.92;38.49;101378.19;5011354;28;100030;-75
2023/05/01 08:48:08;;;;;;;0.32;0.30;;;;;;;22.93;38.62;101379.91;5029833;28;96609;-76
2023/05/01 08:50:38;;;;;;;0.40;0.40;;;;;;;22.92;38.44;101386.41;5010620;28;96725;-75
2023/05/01 08:53:05;;;;;;;0.40;0.30;;;;;;;22.92;38.74;101380.09;5011088;28;96887;-76
2023/05/01 08:55:33;;;;;;;0.68;0.38;;;;;;;22.93;38.29;101384.53;5021647;27;96690;-76
2023/05/01 08:58:01;;;;;;;0.32;0.30;;;;;;;22.93;38.51;101387.28;5013563;28;96839;-75
2023/05/01 09:00:28;;;;;;;0.28;0.20;;;;;;;22.94;38.55;101383.50;5019557;28;96858;-76
2023/05/01 09:02:57;;;;;;;0.50;0.30;;;;;;;22.93;38.59;101382.66;5012825;28;97536;-76
2023/05/01 09:05:23;;;;;;;0.47;0.30;;;;;;;22.94;38.59;101380.75;5015480;27;96899;-76
2023/05/01 09:07:50;;;;;;;0.40;0.40;;;;;;;22.93;38.62;101374.44;5010809;28;97161;-75
2023/05/01 09:10:17;;;;;;;0.30;0.20;;;;;;;22.94;38.74;101375.28;5010468;28;96780;-75
2023/05/01 09:12:51;;;;;;;0.80;0.20;;;;;;;22.95;38.72;101379.72;5017143;28;96664;-75
2023/05/01 09:15:18;;;;;;;0.38;0.30;;;;;;;22.94;38.48;101384.34;5013749;27;97389;-76
2023/05/01 09:17:44;;;;;;;0.50;0.30;;;;;;;22.95;38.60;101379.72;5008783;28;96749;-76
2023/05/01 09:20:11;;;;;;;0.40;0.25;;;;;;;22.95;38.57;101382.47;5009087;28;97234;-76
2023/05/01 09:22:38;;;;;;;0.30;0.20;;;;;;;22.95;38.39;101375.09;5010007;28;97191;-76
2023/05/01 09:25:05;;;;;;;0.30;0.30;;;;;;;22.95;38.80;101380.59;5008675;28;96729;-75
2023/05/01 09:27:36;;;;;;;0.68;0.30;;;;;;;22.96;38.68;101379.56;5009863;28;96741;-76
2023/05/01 09:30:05;;;;;;;1.23;0.25;;;;;;;22.96;38.27;101379.56;5010252;28;97245;-76
2023/05/01 09:32:32;;;;;;;0.30;0.30;;;;;;;22.96;38.51;101376.81;5020993;28;97364;-75
2023/05/01 09:35:12;;;;;;;0.40;0.30;;;;;;;22.97;38.44;101369.44;5009790;28;97811;-75
2023/05/01 09:37:39;;;;;;;0.40;0.28;;;;;;;22.96;38.75;101371.34;5008972;28;96963;-75
2023/05/01 09:40:07;;;;;;;0.30;0.30;;;;;;;22.97;38.61;101374.94;5008538;27;96798;-76
2023/05/01 09:42:49;;;;;;;0.40;0.30;;;;;;;22.98;38.53;101371.16;5013739;28;96875;-75
2023/05/01 09:45:17;;;;;;;0.77;0.38;;;;;;;22.98;38.37;101373.91;5020359;27;97434;-75
2023/05/01 09:47:45;;;;;;;0.38;0.30;;;;;;;22.98;38.71;101363.81;5007550;27;96759;-76
2023/05/01 09:50:29;;;;;;;0.20;0.20;;;;;;;22.99;38.36;101368.25;5009883;27;96834;-76
2023/05/01 09:52:55;;;;;;;0.55;0.40;;;;;;;22.98;38.41;101369.28;5007364;28;100744;-76
2023/05/01 09:55:23;;;;;;;0.40;0.30;;;;;;;22.98;38.32;101374.75;5009765;28;96956;-76
2023/05/01 09:57:51;;;;;;;0.50;0.40;;;;;;;22.99;38.36;101372.88;5014929;28;96906;-76
2023/05/01 10:00:20;;;;;;;0.45;0.25;;;;;;;22.99;38.67;101373.72;5014590;28;96653;-76
2023/05/01 10:02:48;;;;;;;0.57;0.32;;;;;;;23.00;38.50;101377.31;5008090;28;97601;-75
2023/05/01 10:05:16;;;;;;;0.38;0.38;;;;;;;23.01;38.40;101381.75;5009199;28;96819;-76
2023/05/01 10:08:02;;;;;;;0.40;0.30;;;;;;;23.02;38.46;101378.84;5009135;28;97077;-76
2023/05/01 10:10:29;;;;;;;0.30;0.25;;;;;;;23.01;38.51;101379.03;5021303;28;97029;-77
2023/05/01 10:13:12;;;;;;;0.30;0.30;;;;;;;23.01;38.54;101379.88;5009144;28;98343;-75
2023/05/01 10:15:38;;;;;;;0.63;0.40;;;;;;;23.02;38.61;101378.00;5008596;28;96813;-77
2023/05/01 10:18:08;;;;;;;1.08;0.38;;;;;;;23.03;38.81;101376.97;5009079;28;97188;-75
2023/05/01 10:20:35;;;;;;;0.22;0.20;;;;;;;23.04;38.63;101378.72;5009530;28;96568;-76
2023/05/01 10:23:04;;;;;;;0.35;0.20;;;;;;;23.03;38.42;101368.75;5007453;28;99706;-76
2023/05/01 10:25:32;;;;;;;0.43;0.30;;;;;;;23.05;38.44;101372.19;5017176;28;97866;-75
2023/05/01 10:28:02;;;;;;;0.35;0.20;;;;;;;23.05;38.61;101373.06;5018028;28;96914;-76
2023/05/01 10:30:29;;;;;;;0.50;0.30;;;;;;;23.05;38.67;101366.72;5023954;28;96615;-76
2023/05/01 10:32:57;;;;;;;0.52;0.30;;;;;;;23.05;38.35;101367.56;5010735;28;99877;-75
2023/05/01 10:35:30;;;;;;;0.40;0.30;;;;;;;23.06;38.64;101365.69;5013054;28;97245;-75
2023/05/01 10:38:03;;;;;;;0.50;0.35;;;;;;;23.07;38.25;101365.50;5011538;28;97021;-76
2023/05/01 10:40:38;;;;;;;0.45;0.25;;;;;;;23.07;38.45;101368.25;5018560;28;96611;-76
2023/05/01 10:43:13;;;;;;;0.60;0.40;;;;;;;23.06;38.31;101372.03;5012010;28;96876;-75
2023/05/01 10:45:39;;;;;;;0.40;0.30;;;;;;;23.06;38.26;101363.78;5019603;28;97340;-76
2023/05/01 10:48:06;;;;;;;0.35;0.30;;;;;;;23.07;38.65;101364.66;5014034;28;96684;-76
2023/05/01 10:50:33;;;;;;;0.85;0.30;;;;;;;23.08;38.68;101367.22;5012003;28;96895;-75
2023/05/01 10:53:13;;;;;;;0.45;0.30;;;;;;;23.09;38.57;101366.19;5010619;28;98085;-75
2023/05/01 10:55:48;;;;;;;0.63;0.28;;;;;;;23.10;38.17;101364.28;5023137;28;98150;-76
2023/05/01 10:58:39;;;;;;;0.47;0.40;;;;;;;23.10;38.42;101361.56;5019161;28;96693;-75
2023/05/01 11:01:29;;;;;;;0.52;0.40;;;;;;;23.10;38.30;101359.66;5016544;28;96899;-75
2023/05/01 11:04:26;;;;;;;0.68;0.30;;;;;;;23.10;38.48;101356.06;5011906;28;96706;-75
2023/05/01 11:07:06;;;;;;;0.30;0.30;;;;;;;23.10;38.42;101350.59;5010791;28;98187;-76
2023/05/01 11:09:41;;;;;;;0.75;0.30;;;;;;;23.10;38.30;101353.34;5010744;28;96738;-76
2023/05/01 11:12:10;;;;;;;0.50;0.40;;;;;;;23.10;38.35;101347.84;5010488;28;96669;-76
2023/05/01 11:15:06;;;;;;;0.45;0.30;;;;;;;23.11;38.22;101350.41;5010791;28;100390;-76
2023/05/01 11:17:39;;;;;;;0.32;0.30;;;;;;;23.11;38.24;101342.19;5013765;28;96880;-76
2023/05/01 11:20:11;;;;;;;0.50;0.40;;;;;;;23.12;38.46;101352.13;5014655;28;96717;-76
2023/05/01 11:22:39;;;;;;;0.57;0.35;;;;;;;23.13;38.32;101344.75;5017629;28;97230;-75
2023/05/01 11:25:19;;;;;;;0.50;0.30;;;;;;;23.14;38.50;101341.00;5010020;28;97385;-76
2023/05/01 11:27:48;;;;;;;0.60;0.50;;;;;;;23.13;38.64;101347.50;5014144;28;97925;-76
2023/05/01 11:30:15;;;;;;;0.70;0.32;;;;;;;23.14;38.34;101347.31;5009637;28;96881;-76
2023/05/01 11:32:44;;;;;;;0.90;0.50;;;;;;;23.16;38.24;101343.53;5014239;28;98835;-76
2023/05/01 11:35:29;;;;;;;0.45;0.30;;;;;;;23.17;38.46;101342.50;5013617;28;97529;-76
2023/05/01 11:37:55;;;;;;;0.40;0.40;;;;;;;23.16;38.32;101335.31;5010875;28;97244;-76